createdAt,value
2018-07-09T00:02:10.967Z,5.50
2018-07-09T00:07:14.630Z,5.00
2018-07-09T00:12:18.283Z,4.80
2018-07-09T00:17:22.552Z,5.00
2018-07-09T00:22:26.285Z,4.60
2018-07-09T00:27:30.029Z,4.60
2018-07-09T00:32:33.772Z,3.50
2018-07-09T00:37:38.168Z,5.00
2018-07-09T00:42:41.907Z,4.50
2018-07-09T00:47:45.682Z,4.00
2018-07-09T00:52:49.495Z,4.00
2018-07-09T00:57:53.199Z,5.00
2018-07-09T01:02:56.890Z,4.75
2018-07-09T01:08:00.557Z,5.80
2018-07-09T01:13:04.266Z,5.20
2018-07-09T01:18:08.653Z,5.50
2018-07-09T01:23:12.320Z,4.50
2018-07-09T01:28:16.253Z,6.60
2018-07-09T01:33:19.943Z,5.20
2018-07-09T01:38:24.362Z,5.60
2018-07-09T01:43:28.048Z,5.25
2018-07-09T01:48:31.724Z,6.00
2018-07-09T01:53:35.394Z,4.40
2018-07-09T01:58:39.134Z,5.40
2018-07-09T02:03:42.831Z,5.25
2018-07-09T02:08:46.459Z,5.80
2018-07-09T02:13:50.128Z,5.75
2018-07-09T02:18:54.423Z,4.00
2018-07-09T02:23:58.084Z,4.20
2018-07-09T02:29:01.760Z,4.20
2018-07-09T02:34:05.571Z,6.00
2018-07-09T02:39:09.255Z,4.00
2018-07-09T02:44:13.770Z,5.00
2018-07-09T02:49:17.614Z,4.00
2018-07-09T02:54:21.217Z,4.00
2018-07-09T02:59:24.923Z,4.00
2018-07-09T03:04:28.598Z,4.00
2018-07-09T03:09:32.280Z,3.75
2018-07-09T03:14:36.091Z,4.00
2018-07-09T03:19:39.786Z,3.80
2018-07-09T03:24:43.692Z,3.60
2018-07-09T03:29:47.399Z,3.50
2018-07-09T03:34:51.033Z,3.00
2018-07-09T03:39:54.685Z,3.00
2018-07-09T03:44:58.375Z,2.00
2018-07-09T03:50:05.459Z,4.00
2018-07-09T03:55:09.211Z,3.00
2018-07-09T04:00:12.888Z,3.00
2018-07-09T04:05:16.539Z,3.00
2018-07-09T04:10:20.172Z,2.80
2018-07-09T04:15:23.822Z,2.00
2018-07-09T04:20:27.459Z,2.40
2018-07-09T04:25:31.111Z,2.00
2018-07-09T04:30:34.827Z,2.00
2018-07-09T04:35:38.479Z,1.80
2018-07-09T04:40:42.171Z,2.00
2018-07-09T04:45:45.854Z,2.00
2018-07-09T04:50:49.511Z,2.00
2018-07-09T04:55:53.252Z,2.00
2018-07-09T05:00:57.086Z,2.00
2018-07-09T05:06:00.807Z,1.75
2018-07-09T05:11:04.497Z,2.20
2018-07-09T05:16:08.224Z,1.80
2018-07-09T05:21:11.914Z,2.00
2018-07-09T05:26:15.623Z,1.25
2018-07-09T05:31:19.281Z,2.20
2018-07-09T05:36:22.958Z,2.00
2018-07-09T05:41:26.689Z,2.25
2018-07-09T05:46:30.403Z,1.40
2018-07-09T05:51:34.099Z,3.00
2018-07-09T05:56:37.746Z,2.00
2018-07-09T06:01:41.482Z,3.00
2018-07-09T06:06:45.146Z,3.00
2018-07-09T06:11:48.817Z,2.50
2018-07-09T06:16:52.507Z,2.00
2018-07-09T06:21:56.122Z,2.00
2018-07-09T06:26:59.766Z,2.00
2018-07-09T06:32:03.470Z,3.00
2018-07-09T06:37:07.205Z,3.60
2018-07-09T06:42:10.885Z,2.75
2018-07-09T06:47:14.608Z,2.00
2018-07-09T06:52:18.255Z,3.00
2018-07-09T06:57:21.963Z,2.75
2018-07-09T07:02:25.711Z,3.00
2018-07-09T07:07:29.331Z,2.80
2018-07-09T07:12:33.038Z,2.25
2018-07-09T07:17:37.132Z,3.00
2018-07-09T07:22:40.856Z,2.00
2018-07-09T07:27:45.035Z,2.00
2018-07-09T07:32:48.844Z,2.00
2018-07-09T07:37:52.570Z,2.00
2018-07-09T07:42:56.190Z,2.20
2018-07-09T07:47:59.948Z,2.50
2018-07-09T07:53:03.540Z,2.00
2018-07-09T07:58:09.171Z,2.40
2018-07-09T08:03:12.895Z,2.00
2018-07-09T08:08:16.506Z,2.40
2018-07-09T08:13:28.500Z,3.00
2018-07-09T08:18:24.036Z,2.50
2018-07-09T08:23:27.833Z,2.80
2018-07-09T08:28:31.430Z,2.00
2018-07-09T08:33:35.093Z,2.50
2018-07-09T08:38:39.292Z,3.00
2018-07-09T08:43:42.912Z,3.00
2018-07-09T08:48:47.085Z,2.00
2018-07-09T08:53:50.733Z,2.00
2018-07-09T08:58:54.467Z,2.20
2018-07-09T09:03:58.195Z,3.00
2018-07-09T09:09:01.971Z,2.75
2018-07-09T09:14:06.208Z,2.60
2018-07-09T09:19:09.924Z,2.00
2018-07-09T09:24:13.714Z,3.00
2018-07-09T09:29:17.282Z,3.00
2018-07-09T09:34:20.977Z,3.25
2018-07-09T09:39:24.549Z,3.00
2018-07-09T09:44:28.169Z,3.80
2018-07-09T09:49:32.423Z,4.00
2018-07-09T09:54:36.186Z,3.00
2018-07-09T09:59:40.023Z,3.00
2018-07-09T10:04:43.813Z,3.00
2018-07-09T10:09:47.575Z,3.00
2018-07-09T10:14:51.246Z,3.00
2018-07-09T10:19:54.886Z,4.00
2018-07-09T10:24:58.662Z,2.40
2018-07-09T10:30:03.856Z,3.00
2018-07-09T10:35:07.956Z,2.00
2018-07-09T10:40:11.722Z,2.80
2018-07-09T10:45:15.530Z,3.40
2018-07-09T10:50:19.399Z,3.60
2018-07-09T10:55:23.213Z,2.20
2018-07-09T11:00:27.667Z,2.80
2018-07-09T11:05:32.627Z,2.80
2018-07-09T11:10:36.784Z,2.00
2018-07-09T11:15:40.594Z,3.00
2018-07-09T11:20:44.295Z,1.80
2018-07-09T11:25:48.077Z,2.25
2018-07-09T11:30:51.805Z,1.75
2018-07-09T11:35:55.498Z,1.00
2018-07-09T11:40:59.330Z,1.00
2018-07-09T11:46:03.094Z,0.75
2018-07-09T11:51:06.959Z,1.80
2018-07-09T11:56:10.580Z,0.40
2018-07-09T12:01:14.299Z,0.80
2018-07-09T12:06:18.335Z,0.25
2018-07-09T12:11:22.098Z,0.60
2018-07-09T12:16:25.851Z,0.25
2018-07-09T12:21:29.535Z,1.00
2018-07-09T12:26:33.190Z,1.00
2018-07-09T12:31:36.850Z,1.50
2018-07-09T12:36:40.542Z,0.80
2018-07-09T12:41:44.384Z,0.00
2018-07-09T12:46:48.391Z,0.75
2018-07-09T12:51:52.263Z,0.00
2018-07-09T12:56:56.654Z,1.00
2018-07-09T13:02:00.910Z,0.40
2018-07-09T13:07:06.116Z,0.75
2018-07-09T13:12:10.804Z,1.25
2018-07-09T13:17:15.054Z,0.00
2018-07-09T13:22:19.073Z,1.00
2018-07-09T13:27:22.788Z,1.00
2018-07-09T13:32:26.546Z,1.80
2018-07-09T13:37:31.071Z,1.80
2018-07-09T13:42:34.818Z,2.00
2018-07-09T13:47:38.506Z,0.60
2018-07-09T13:52:42.194Z,1.25
2018-07-09T13:57:45.902Z,1.00
2018-07-09T14:02:49.626Z,1.00
2018-07-09T14:07:54.412Z,1.00
2018-07-09T14:13:11.813Z,1.00
2018-07-09T14:18:15.741Z,0.60
2018-07-09T14:23:20.081Z,1.00
2018-07-09T14:28:24.517Z,1.00
2018-07-09T14:33:28.529Z,1.00
2018-07-09T14:38:33.074Z,1.00
2018-07-09T14:43:36.924Z,1.00
2018-07-09T14:48:41.049Z,1.00
2018-07-09T14:53:44.805Z,0.80
2018-07-09T14:58:48.505Z,1.00
2018-07-09T15:03:52.888Z,0.50
2018-07-09T15:08:57.632Z,1.00
2018-07-09T15:14:02.289Z,0.25
2018-07-09T15:19:06.039Z,0.00
2018-07-09T15:24:09.787Z,0.00
2018-07-09T15:29:13.602Z,1.00
2018-07-09T15:34:17.853Z,1.00
2018-07-09T15:39:21.786Z,1.00
2018-07-09T15:44:25.508Z,1.00
2018-07-09T15:49:29.300Z,1.00
2018-07-09T15:54:33.839Z,1.00
2018-07-09T15:59:38.009Z,1.00
2018-07-09T16:04:42.262Z,0.80
2018-07-09T16:09:46.155Z,0.25
2018-07-09T16:14:49.866Z,1.00
2018-07-09T16:19:53.553Z,1.00
2018-07-09T16:24:58.410Z,2.00
2018-07-09T16:30:05.083Z,1.50
2018-07-09T16:35:10.285Z,1.00
2018-07-09T16:40:14.060Z,2.00
2018-07-09T16:45:17.743Z,1.00
2018-07-09T16:50:21.721Z,1.00
2018-07-09T17:00:34.507Z,1.40
2018-07-09T17:05:38.859Z,0.00
2018-07-09T17:10:43.671Z,2.00
2018-07-09T17:15:48.568Z,1.25
2018-07-09T17:20:52.337Z,1.60
2018-07-09T17:25:56.037Z,0.60
2018-07-09T17:30:59.911Z,1.00
2018-07-09T17:36:03.614Z,1.20
2018-07-09T17:41:07.625Z,1.00
2018-07-09T17:46:11.309Z,1.00
2018-07-09T17:51:15.329Z,1.00
2018-07-09T17:56:19.024Z,1.00
2018-07-09T18:01:25.626Z,2.00
2018-07-09T18:06:29.350Z,1.80
2018-07-09T18:11:33.093Z,1.25
2018-07-09T18:16:36.791Z,2.00
2018-07-09T18:21:40.512Z,0.60
2018-07-09T18:26:44.351Z,1.00
2018-07-09T18:31:48.630Z,1.00
2018-07-09T18:36:52.390Z,1.80
2018-07-09T18:41:56.175Z,0.00
2018-07-09T18:46:59.856Z,1.25
2018-07-09T18:52:04.772Z,0.80
2018-07-09T18:57:09.292Z,1.60
2018-07-09T19:02:13.245Z,1.60
2018-07-09T19:07:22.690Z,2.00
2018-07-09T19:12:30.773Z,1.60
2018-07-09T19:18:12.555Z,1.00
2018-07-09T19:23:15.148Z,1.00
2018-07-09T19:28:17.766Z,1.00
2018-07-09T19:33:20.254Z,1.00
2018-07-09T19:38:22.780Z,2.00
2018-07-09T19:43:25.400Z,1.00
2018-07-09T19:48:28.884Z,1.50
2018-07-09T21:21:26.687Z,2.40
2018-07-09T21:47:46.295Z,2.60
